Time;durP1;ratioP1;P1;durP2;ratioP2;P2;SDS_P1;SDS_P2;PMS_P1;PMS_P2;Temp;Humidity;BMP_temperature;BMP_pressure;BME280_temperature;BME280_humidity;BME280_pressure;Samples;Min_cycle;Max_cycle;Signal;HPM_P1;HPM_P2
2021/06/12 00:01:22;;;;;;;;;;;16.50;99.90;;;;;;6188343;23;20006;-80
2021/06/12 00:03:53;;;;;;;;;;;16.50;99.90;;;;;;6164656;23;19955;-80
2021/06/12 00:06:20;;;;;;;;;;;16.60;99.90;;;;;;6188243;23;19924;-80
2021/06/12 00:08:47;;;;;;;;;;;16.50;99.90;;;;;;6188076;23;19920;-79
2021/06/12 00:11:14;;;;;;;;;;;16.50;99.90;;;;;;6163616;23;19943;-80
2021/06/12 00:13:40;;;;;;;;;;;16.60;99.90;;;;;;6188329;23;20383;-80
2021/06/12 00:16:12;;;;;;;;;;;16.50;99.90;;;;;;6165126;23;20341;-79
2021/06/12 00:18:39;;;;;;;;;;;16.60;99.90;;;;;;6187837;23;20345;-79
2021/06/12 00:21:05;;;;;;;;;;;16.60;99.90;;;;;;6188353;23;20312;-79
2021/06/12 00:23:32;;;;;;;;;;;16.50;99.90;;;;;;6163901;23;19920;-79
2021/06/12 00:25:59;;;;;;;;;;;16.50;99.90;;;;;;6168070;23;19969;-80
2021/06/12 00:28:30;;;;;;;;;;;16.50;99.90;;;;;;6168341;23;20006;-80
2021/06/12 00:30:57;;;;;;;;;;;16.50;99.90;;;;;;6167090;23;19959;-79
2021/06/12 00:33:24;;;;;;;;;;;16.50;99.90;;;;;;6166700;23;20334;-81
2021/06/12 00:35:50;;;;;;;;;;;16.50;99.90;;;;;;6164665;23;19931;-80
2021/06/12 00:38:17;;;;;;;;;;;16.50;99.90;;;;;;6165082;23;19951;-79
2021/06/12 00:40:44;;;;;;;;;;;16.40;99.90;;;;;;6164832;23;19993;-79
2021/06/12 00:43:11;;;;;;;;;;;16.40;99.90;;;;;;6164478;23;19974;-79
2021/06/12 00:45:39;;;;;;;;;;;16.40;99.90;;;;;;6164809;23;19924;-80
2021/06/12 00:48:11;;;;;;;;;;;16.40;99.90;;;;;;6189549;23;20015;-81
2021/06/12 00:50:38;;;;;;;;;;;16.40;99.90;;;;;;6164256;23;20410;-79
2021/06/12 00:53:04;;;;;;;;;;;16.40;99.90;;;;;;6163704;23;20007;-79
2021/06/12 00:55:31;;;;;;;;;;;16.30;99.90;;;;;;6162610;23;20320;-79
2021/06/12 00:57:58;;;;;;;;;;;16.30;99.90;;;;;;6164463;23;20002;-79
2021/06/12 01:00:24;;;;;;;;;;;16.20;99.90;;;;;;6188418;23;19955;-79
2021/06/12 01:02:51;;;;;;;;;;;16.10;99.90;;;;;;6188567;23;19946;-79
2021/06/12 01:05:19;;;;;;;;;;;16.00;99.90;;;;;;6163988;23;19947;-79
2021/06/12 01:07:51;;;;;;;;;;;16.00;99.90;;;;;;6189859;23;20419;-79
2021/06/12 01:10:18;;;;;;;;;;;16.00;99.90;;;;;;6163722;23;20554;-79
2021/06/12 01:12:45;;;;;;;;;;;15.90;99.90;;;;;;6163794;23;19919;-79
2021/06/12 01:15:12;;;;;;;;;;;16.00;99.90;;;;;;6163908;23;19924;-79
2021/06/12 01:18:12;;;;;;;;;;;16.00;99.90;;;;;;6164064;23;19927;-79
2021/06/12 01:20:58;;;;;;;;;;;16.00;99.90;;;;;;6124024;23;19920;-79
2021/06/12 01:23:31;;;;;;;;;;;15.90;99.90;;;;;;6163536;23;20010;-79
2021/06/12 01:25:58;;;;;;;;;;;15.90;99.90;;;;;;6188265;23;19923;-79
2021/06/12 01:28:30;;;;;;;;;;;15.90;99.90;;;;;;6187929;23;19987;-79
2021/06/12 01:30:57;;;;;;;;;;;15.80;99.90;;;;;;6188266;23;19928;-79
2021/06/12 01:33:29;;;;;;;;;;;15.70;99.90;;;;;;6188083;23;19979;-79
2021/06/12 01:36:02;;;;;;;;;;;15.70;99.90;;;;;;6164584;23;20003;-79
2021/06/12 01:38:33;;;;;;;;;;;15.60;99.90;;;;;;6188866;23;19951;-79
2021/06/12 01:41:01;;;;;;;;;;;15.60;99.90;;;;;;6163897;23;20007;-80
2021/06/12 01:43:34;;;;;;;;;;;15.70;99.90;;;;;;6188653;23;20007;-79
2021/06/12 01:46:01;;;;;;;;;;;15.70;99.90;;;;;;6163569;23;19971;-79
2021/06/12 01:48:28;;;;;;;;;;;15.70;99.90;;;;;;6163671;23;20328;-79
2021/06/12 01:50:57;;;;;;;;;;;15.70;99.90;;;;;;6189013;23;19927;-79
2021/06/12 01:53:30;;;;;;;;;;;15.70;99.90;;;;;;6188691;23;19962;-79
2021/06/12 01:56:00;;;;;;;;;;;15.70;99.90;;;;;;6164147;23;20349;-79
2021/06/12 01:58:27;;;;;;;;;;;15.70;99.90;;;;;;6188670;23;20010;-79
2021/06/12 02:00:54;;;;;;;;;;;15.70;99.90;;;;;;6188382;23;20014;-79
2021/06/12 02:03:22;;;;;;;;;;;15.60;99.90;;;;;;6163735;23;20448;-79
2021/06/12 02:05:54;;;;;;;;;;;15.50;99.90;;;;;;6188961;23;20222;-79
2021/06/12 02:08:22;;;;;;;;;;;15.50;99.90;;;;;;6163663;23;19924;-79
2021/06/12 02:10:49;;;;;;;;;;;15.40;99.90;;;;;;6163595;23;20388;-79
2021/06/12 02:13:16;;;;;;;;;;;15.40;99.90;;;;;;6163499;23;19974;-79
2021/06/12 02:15:53;;;;;;;;;;;15.40;99.90;;;;;;6165121;23;20348;-79
2021/06/12 02:18:20;;;;;;;;;;;15.40;99.90;;;;;;6190561;23;19943;-79
2021/06/12 02:20:52;;;;;;;;;;;15.40;99.90;;;;;;6166522;23;20014;-79
2021/06/12 02:23:19;;;;;;;;;;;15.50;99.90;;;;;;6165068;23;19998;-80
2021/06/12 02:25:47;;;;;;;;;;;15.40;99.90;;;;;;6164836;23;20002;-79
2021/06/12 02:28:15;;;;;;;;;;;15.40;99.90;;;;;;6165579;23;19947;-79
2021/06/12 02:30:43;;;;;;;;;;;15.30;99.90;;;;;;6165307;23;20310;-79
2021/06/12 02:33:16;;;;;;;;;;;15.30;99.90;;;;;;6166728;23;19943;-80
2021/06/12 02:35:47;;;;;;;;;;;15.20;99.90;;;;;;6166526;23;19920;-79
2021/06/12 02:38:14;;;;;;;;;;;15.30;99.90;;;;;;6216759;23;20345;-79
2021/06/12 02:40:46;;;;;;;;;;;15.30;99.90;;;;;;6191080;23;19920;-79
2021/06/12 02:43:13;;;;;;;;;;;15.30;99.90;;;;;;6165416;23;19927;-79
2021/06/12 02:45:41;;;;;;;;;;;15.30;99.90;;;;;;6190087;23;19955;-80
2021/06/12 02:48:12;;;;;;;;;;;15.30;99.90;;;;;;6189980;23;19920;-79
2021/06/12 02:50:48;;;;;;;;;;;15.30;99.90;;;;;;6166058;23;19919;-79
2021/06/12 02:53:16;;;;;;;;;;;15.30;99.90;;;;;;6165112;23;20006;-79
2021/06/12 02:55:46;;;;;;;;;;;15.20;99.90;;;;;;6189302;23;19967;-79
2021/06/12 02:58:14;;;;;;;;;;;15.20;99.90;;;;;;6189634;23;19978;-79
2021/06/12 03:00:42;;;;;;;;;;;15.20;99.90;;;;;;6189655;23;20015;-79
2021/06/12 03:03:14;;;;;;;;;;;15.20;99.90;;;;;;6166081;23;19947;-79
2021/06/12 03:05:50;;;;;;;;;;;15.20;99.90;;;;;;6191059;23;19939;-79
2021/06/12 03:08:17;;;;;;;;;;;15.30;99.90;;;;;;6165122;23;19920;-79
2021/06/12 03:10:51;;;;;;;;;;;15.20;99.90;;;;;;6166307;23;19920;-79
2021/06/12 03:13:19;;;;;;;;;;;15.10;99.90;;;;;;6189695;23;19919;-79
2021/06/12 03:15:52;;;;;;;;;;;15.10;99.90;;;;;;6166071;23;20019;-79
2021/06/12 03:18:19;;;;;;;;;;;15.10;99.90;;;;;;6164897;23;19954;-79
2021/06/12 03:20:46;;;;;;;;;;;15.10;99.90;;;;;;6164405;23;20264;-79
2021/06/12 03:23:18;;;;;;;;;;;15.00;99.90;;;;;;6189411;23;20039;-79
2021/06/12 03:25:45;;;;;;;;;;;15.00;99.90;;;;;;6189670;23;20004;-79
2021/06/12 03:28:12;;;;;;;;;;;14.90;99.90;;;;;;6189355;23;20436;-79
2021/06/12 03:30:43;;;;;;;;;;;14.90;99.90;;;;;;6165439;23;19955;-79
2021/06/12 03:33:10;;;;;;;;;;;14.90;99.90;;;;;;6164762;23;19920;-79
2021/06/12 03:35:42;;;;;;;;;;;14.80;99.90;;;;;;6190737;23;19994;-79
2021/06/12 03:38:09;;;;;;;;;;;14.90;99.90;;;;;;6164550;23;19920;-79
2021/06/12 03:40:37;;;;;;;;;;;14.90;99.90;;;;;;6164363;23;19924;-79
2021/06/12 03:43:09;;;;;;;;;;;14.80;99.90;;;;;;6165566;23;20003;-79
2021/06/12 03:45:41;;;;;;;;;;;14.80;99.90;;;;;;6164436;23;20456;-79
2021/06/12 03:48:14;;;;;;;;;;;14.70;99.90;;;;;;6165230;23;20030;-79
2021/06/12 03:50:41;;;;;;;;;;;14.60;99.90;;;;;;6164235;23;19962;-79
2021/06/12 03:53:08;;;;;;;;;;;14.60;99.90;;;;;;6193392;23;19920;-80
2021/06/12 03:55:40;;;;;;;;;;;14.60;99.90;;;;;;6172685;23;20307;-80
2021/06/12 03:58:07;;;;;;;;;;;14.70;99.90;;;;;;6169984;23;19955;-80
2021/06/12 04:00:39;;;;;;;;;;;14.70;99.90;;;;;;6170177;23;19927;-79
2021/06/12 04:03:05;;;;;;;;;;;14.70;99.90;;;;;;6165546;23;19920;-79
2021/06/12 04:05:32;;;;;;;;;;;14.70;99.90;;;;;;6188809;23;19920;-79
2021/06/12 04:07:59;;;;;;;;;;;14.70;99.90;;;;;;6188697;23;19920;-79
2021/06/12 04:10:30;;;;;;;;;;;14.70;99.90;;;;;;6165112;23;20230;-79
2021/06/12 04:12:57;;;;;;;;;;;14.70;99.90;;;;;;6164086;23;20329;-79
2021/06/12 04:15:24;;;;;;;;;;;14.60;99.90;;;;;;6164085;23;19924;-79
2021/06/12 04:17:58;;;;;;;;;;;14.60;99.90;;;;;;6164139;23;19974;-79
2021/06/12 04:20:25;;;;;;;;;;;14.60;99.90;;;;;;6163929;23;20345;-79
2021/06/12 04:22:52;;;;;;;;;;;14.60;99.90;;;;;;6188616;23;19920;-79
2021/06/12 04:25:18;;;;;;;;;;;14.60;99.90;;;;;;6188798;23;19986;-79
2021/06/12 04:27:45;;;;;;;;;;;14.60;99.90;;;;;;6163928;23;19947;-79
2021/06/12 04:30:19;;;;;;;;;;;14.60;99.90;;;;;;6164742;23;19920;-79
2021/06/12 04:32:47;;;;;;;;;;;14.60;99.90;;;;;;6163849;23;19924;-79
2021/06/12 04:35:18;;;;;;;;;;;14.60;99.90;;;;;;6165175;23;20285;-79
2021/06/12 04:37:50;;;;;;;;;;;14.70;99.90;;;;;;6165233;23;20341;-79
2021/06/12 04:40:17;;;;;;;;;;;14.70;99.90;;;;;;6163714;23;19998;-79
2021/06/12 04:42:44;;;;;;;;;;;14.80;99.90;;;;;;6188328;23;19959;-79
2021/06/12 04:45:15;;;;;;;;;;;14.80;99.90;;;;;;6213581;23;19920;-79
2021/06/12 04:47:42;;;;;;;;;;;14.90;99.90;;;;;;6188445;23;20353;-79
2021/06/12 04:50:10;;;;;;;;;;;14.90;99.90;;;;;;6163821;23;20305;-79
2021/06/12 04:52:42;;;;;;;;;;;14.90;99.90;;;;;;6188355;23;19998;-80
2021/06/12 04:55:09;;;;;;;;;;;15.00;99.90;;;;;;6190129;23;20348;-81
2021/06/12 04:57:37;;;;;;;;;;;15.00;99.90;;;;;;6167192;23;20274;-81
2021/06/12 05:00:06;;;;;;;;;;;15.10;99.90;;;;;;6167632;23;19924;-81
2021/06/12 05:02:33;;;;;;;;;;;15.10;99.90;;;;;;6168115;23;20303;-81
2021/06/12 05:05:00;;;;;;;;;;;15.20;99.90;;;;;;6167740;23;19920;-80
2021/06/12 05:07:27;;;;;;;;;;;15.20;99.90;;;;;;6166503;23;19966;-80
2021/06/12 05:09:55;;;;;;;;;;;15.20;99.90;;;;;;6167566;23;19924;-81
2021/06/12 05:12:24;;;;;;;;;;;15.20;99.90;;;;;;6192252;23;19919;-81
2021/06/12 05:14:55;;;;;;;;;;;15.30;99.90;;;;;;6166569;23;20312;-80
2021/06/12 05:17:22;;;;;;;;;;;15.30;99.90;;;;;;6166530;23;19920;-80
2021/06/12 05:19:49;;;;;;;;;;;15.40;99.90;;;;;;6167023;23;19927;-80
2021/06/12 05:22:20;;;;;;;;;;;15.40;99.90;;;;;;6167231;23;19943;-80
2021/06/12 05:24:48;;;;;;;;;;;15.40;99.90;;;;;;6166608;23;19920;-80
2021/06/12 05:27:15;;;;;;;;;;;15.50;99.90;;;;;;6167504;23;19920;-81
2021/06/12 05:29:48;;;;;;;;;;;15.60;99.90;;;;;;6168227;23;19919;-80
2021/06/12 05:32:15;;;;;;;;;;;15.60;99.90;;;;;;6167613;23;19999;-80
2021/06/12 05:34:43;;;;;;;;;;;15.70;99.90;;;;;;6167181;23;19924;-81
2021/06/12 05:37:15;;;;;;;;;;;15.80;99.90;;;;;;6168602;23;19939;-80
2021/06/12 05:39:42;;;;;;;;;;;15.90;99.90;;;;;;6167537;23;19963;-80
2021/06/12 05:42:09;;;;;;;;;;;16.00;99.90;;;;;;6166201;23;19951;-81
2021/06/12 05:44:37;;;;;;;;;;;16.10;99.90;;;;;;6168060;23;19920;-80
2021/06/12 05:47:04;;;;;;;;;;;16.30;99.90;;;;;;6168236;23;19930;-81
2021/06/12 05:49:31;;;;;;;;;;;16.30;99.90;;;;;;6168962;23;19924;-81
2021/06/12 05:51:58;;;;;;;;;;;16.50;99.90;;;;;;6169175;23;19926;-81
2021/06/12 05:54:31;;;;;;;;;;;16.60;99.90;;;;;;6171510;23;19920;-81
2021/06/12 05:56:58;;;;;;;;;;;16.70;99.90;;;;;;6171170;23;19927;-80
2021/06/12 05:59:26;;;;;;;;;;;16.80;99.90;;;;;;6170324;23;19955;-80
2021/06/12 06:01:53;;;;;;;;;;;16.90;99.90;;;;;;6171408;23;19974;-80
2021/06/12 06:04:20;;;;;;;;;;;16.90;99.90;;;;;;6171350;23;19920;-81
2021/06/12 06:06:47;;;;;;;;;;;16.90;99.90;;;;;;6171682;23;20332;-81
2021/06/12 06:09:14;;;;;;;;;;;17.00;99.90;;;;;;6170886;23;19924;-81
2021/06/12 06:11:41;;;;;;;;;;;17.00;99.90;;;;;;6195844;23;19919;-81
2021/06/12 06:14:09;;;;;;;;;;;17.10;99.90;;;;;;6170937;23;19920;-81
2021/06/12 06:16:41;;;;;;;;;;;17.10;99.90;;;;;;6173863;23;19904;-81
2021/06/12 06:19:09;;;;;;;;;;;17.20;99.90;;;;;;6170557;23;19924;-81
2021/06/12 06:21:36;;;;;;;;;;;17.30;99.90;;;;;;6169117;23;19924;-80
2021/06/12 06:24:08;;;;;;;;;;;17.30;99.90;;;;;;6167105;23;19924;-80
2021/06/12 06:26:35;;;;;;;;;;;17.40;99.90;;;;;;6165704;23;19951;-79
2021/06/12 06:29:02;;;;;;;;;;;17.50;99.90;;;;;;6189850;23;19923;-79
2021/06/12 06:31:33;;;;;;;;;;;17.60;99.90;;;;;;6166050;23;19999;-79
2021/06/12 06:34:00;;;;;;;;;;;17.70;99.90;;;;;;6188012;23;19944;-78
2021/06/12 06:36:32;;;;;;;;;;;17.90;99.90;;;;;;6166543;23;19926;-79
2021/06/12 06:38:58;;;;;;;;;;;18.20;99.90;;;;;;6165153;23;20007;-79
2021/06/12 06:41:25;;;;;;;;;;;18.30;99.90;;;;;;6165484;23;19974;-79
2021/06/12 06:43:52;;;;;;;;;;;18.50;99.90;;;;;;6164430;23;20359;-79
2021/06/12 06:46:24;;;;;;;;;;;18.60;99.90;;;;;;6166111;23;19931;-79
2021/06/12 06:48:50;;;;;;;;;;;18.60;99.90;;;;;;6164310;23;19947;-79
2021/06/12 06:51:22;;;;;;;;;;;18.80;99.90;;;;;;6165463;23;20002;-79
2021/06/12 06:53:49;;;;;;;;;;;18.90;99.90;;;;;;6164734;23;19927;-78
2021/06/12 06:56:21;;;;;;;;;;;19.00;99.90;;;;;;6189264;23;19920;-79
2021/06/12 06:58:52;;;;;;;;;;;19.10;99.90;;;;;;6190405;23;19920;-79
2021/06/12 07:01:24;;;;;;;;;;;19.20;99.90;;;;;;6167130;23;19924;-79
2021/06/12 07:03:51;;;;;;;;;;;19.30;99.90;;;;;;6191847;23;19919;-79
2021/06/12 07:06:18;;;;;;;;;;;19.40;99.90;;;;;;6189457;23;19958;-78
2021/06/12 07:08:44;;;;;;;;;;;19.60;99.90;;;;;;6164721;23;19924;-79
2021/06/12 07:11:16;;;;;;;;;;;19.70;99.90;;;;;;6165657;23;19951;-79
2021/06/12 07:13:42;;;;;;;;;;;19.90;99.90;;;;;;6164646;23;20046;-79
2021/06/12 07:16:09;;;;;;;;;;;20.00;99.90;;;;;;6189675;23;19943;-79
2021/06/12 07:18:36;;;;;;;;;;;20.20;99.90;;;;;;6165475;23;20007;-78
2021/06/12 07:21:03;;;;;;;;;;;20.30;99.90;;;;;;6190544;23;19955;-78
2021/06/12 07:23:29;;;;;;;;;;;20.30;99.90;;;;;;6193096;23;19924;-78
2021/06/12 07:25:56;;;;;;;;;;;20.40;99.90;;;;;;6167523;23;19920;-78
2021/06/12 07:28:28;;;;;;;;;;;20.50;99.90;;;;;;6168696;23;20333;-79
2021/06/12 07:30:55;;;;;;;;;;;20.60;99.90;;;;;;6191331;23;19931;-78
2021/06/12 07:33:21;;;;;;;;;;;20.60;99.90;;;;;;6188731;23;19920;-78
2021/06/12 07:35:48;;;;;;;;;;;20.70;99.90;;;;;;6189647;23;19955;-78
2021/06/12 07:38:15;;;;;;;;;;;20.80;99.90;;;;;;6165107;23;20334;-79
2021/06/12 07:40:43;;;;;;;;;;;20.80;99.90;;;;;;6165243;23;19920;-78
2021/06/12 07:43:10;;;;;;;;;;;20.90;99.90;;;;;;6164873;23;19970;-78
2021/06/12 07:45:41;;;;;;;;;;;21.00;99.90;;;;;;6191517;23;19947;-78
2021/06/12 07:48:08;;;;;;;;;;;21.00;99.90;;;;;;6189786;23;20411;-78
2021/06/12 07:50:40;;;;;;;;;;;21.10;99.90;;;;;;6166249;23;19955;-79
2021/06/12 07:53:12;;;;;;;;;;;21.20;99.90;;;;;;6166197;23;20385;-79
2021/06/12 07:55:38;;;;;;;;;;;21.30;99.90;;;;;;6164842;23;20348;-78
2021/06/12 07:58:10;;;;;;;;;;;21.40;99.90;;;;;;6165984;23;19919;-78
2021/06/12 08:00:37;;;;;;;;;;;21.50;99.90;;;;;;6191104;23;20353;-78
2021/06/12 08:03:04;;;;;;;;;;;21.50;99.90;;;;;;6165556;23;19947;-78
2021/06/12 08:05:31;;;;;;;;;;;21.60;99.90;;;;;;6168357;23;19931;-78
2021/06/12 08:08:03;;;;;;;;;;;21.70;99.90;;;;;;6169474;23;20263;-79
2021/06/12 08:10:30;;;;;;;;;;;21.80;99.90;;;;;;6167654;23;19919;-79
2021/06/12 08:12:56;;;;;;;;;;;22.00;99.90;;;;;;6193445;23;20350;-79
2021/06/12 08:15:24;;;;;;;;;;;22.10;99.90;;;;;;6192300;23;19920;-78
2021/06/12 08:17:51;;;;;;;;;;;22.20;99.90;;;;;;6168479;23;19920;-78
2021/06/12 08:20:18;;;;;;;;;;;22.30;99.90;;;;;;6192861;23;19942;-79
2021/06/12 08:22:44;;;;;;;;;;;22.20;99.90;;;;;;6192218;23;19919;-78
2021/06/12 08:25:11;;;;;;;;;;;22.30;99.90;;;;;;6167583;23;20282;-79
2021/06/12 08:27:38;;;;;;;;;;;22.20;99.90;;;;;;6189780;23;20348;-78
2021/06/12 08:30:06;;;;;;;;;;;22.20;99.90;;;;;;6188864;23;20367;-78
2021/06/12 08:32:39;;;;;;;;;;;22.40;99.90;;;;;;6165663;23;20027;-78
2021/06/12 08:35:10;;;;;;;;;;;22.40;99.90;;;;;;6165735;23;20007;-78
2021/06/12 08:37:37;;;;;;;;;;;22.50;99.90;;;;;;6188953;23;19920;-78
2021/06/12 08:40:04;;;;;;;;;;;22.60;99.90;;;;;;6164418;23;20338;-78
2021/06/12 08:42:31;;;;;;;;;;;22.70;99.90;;;;;;6164493;23;19924;-78
2021/06/12 08:44:59;;;;;;;;;;;22.70;99.90;;;;;;6165158;23;20307;-78
2021/06/12 08:47:35;;;;;;;;;;;22.80;99.90;;;;;;6189641;23;19955;-79
2021/06/12 08:50:06;;;;;;;;;;;22.90;99.90;;;;;;6188740;23;20340;-78
2021/06/12 08:52:38;;;;;;;;;;;23.00;99.90;;;;;;6190176;23;19998;-78
2021/06/12 08:55:11;;;;;;;;;;;23.10;99.90;;;;;;6165050;23;20344;-78
2021/06/12 08:57:43;;;;;;;;;;;23.20;99.90;;;;;;6165165;23;19970;-79
2021/06/12 09:00:15;;;;;;;;;;;23.40;99.90;;;;;;6190252;23;19963;-78
2021/06/12 09:03:00;;;;;;;;;;;23.40;99.90;;;;;;6164132;23;19927;-79
2021/06/12 09:05:41;;;;;;;;;;;23.40;99.90;;;;;;6188525;23;19920;-79
2021/06/12 09:08:14;;;;;;;;;;;23.50;99.90;;;;;;6164796;23;20006;-78
2021/06/12 09:11:01;;;;;;;;;;;23.50;99.90;;;;;;6163763;23;19986;-79
2021/06/12 09:13:34;;;;;;;;;;;23.60;99.90;;;;;;6164001;23;20364;-78
2021/06/12 09:16:02;;;;;;;;;;;23.70;99.90;;;;;;6163040;23;19927;-78
2021/06/12 09:18:35;;;;;;;;;;;23.80;99.90;;;;;;6164774;23;20416;-78
2021/06/12 09:21:21;;;;;;;;;;;23.80;99.90;;;;;;6164599;23;19927;-78
2021/06/12 09:23:53;;;;;;;;;;;24.00;99.90;;;;;;6189463;23;20308;-78
2021/06/12 09:26:44;;;;;;;;;;;24.10;99.90;;;;;;6164606;23;19927;-78
2021/06/12 09:29:20;;;;;;;;;;;24.20;99.90;;;;;;6189819;23;20338;-79
2021/06/12 09:31:52;;;;;;;;;;;24.30;99.90;;;;;;6164851;23;19926;-78
2021/06/12 09:34:21;;;;;;;;;;;24.30;99.90;;;;;;6163194;23;19920;-78
2021/06/12 09:36:48;;;;;;;;;;;24.30;99.90;;;;;;6164138;23;19951;-79
2021/06/12 09:39:17;;;;;;;;;;;24.20;99.90;;;;;;6163105;23;19974;-79
2021/06/12 09:41:45;;;;;;;;;;;24.30;99.90;;;;;;6163588;23;20301;-79
2021/06/12 09:44:27;;;;;;;;;;;24.40;99.90;;;;;;6187188;23;20341;-79
2021/06/12 09:47:00;;;;;;;;;;;24.50;99.90;;;;;;6186786;23;20007;-79
2021/06/12 09:49:36;;;;;;;;;;;24.50;99.90;;;;;;6160135;23;20256;-79
2021/06/12 09:52:13;;;;;;;;;;;24.60;99.90;;;;;;6162148;23;19920;-80
2021/06/12 09:54:40;;;;;;;;;;;24.70;99.90;;;;;;6160572;23;19974;-79
2021/06/12 09:57:07;;;;;;;;;;;24.80;99.90;;;;;;6162170;23;19955;-79
2021/06/12 09:59:43;;;;;;;;;;;24.90;99.90;;;;;;6186525;23;20689;-79
2021/06/12 10:02:11;;;;;;;;;;;25.00;99.90;;;;;;6162965;23;19919;-79
2021/06/12 10:04:57;;;;;;;;;;;25.00;99.90;;;;;;6185925;23;19920;-79
2021/06/12 10:07:29;;;;;;;;;;;25.10;99.90;;;;;;6188478;23;19920;-79
2021/06/12 10:09:58;;;;;;;;;;;25.20;99.90;;;;;;6159582;23;20006;-79
2021/06/12 10:12:25;;;;;;;;;;;25.40;99.90;;;;;;6161734;23;20621;-79
2021/06/12 10:14:55;;;;;;;;;;;25.60;99.90;;;;;;6186602;23;19919;-79
2021/06/12 10:17:23;;;;;;;;;;;25.50;99.90;;;;;;6161526;23;19926;-79
2021/06/12 10:19:51;;;;;;;;;;;25.40;99.90;;;;;;6160808;23;20345;-79
2021/06/12 10:22:18;;;;;;;;;;;25.50;99.90;;;;;;6162444;23;19974;-79
2021/06/12 10:24:50;;;;;;;;;;;25.60;99.90;;;;;;6188604;23;19919;-79
2021/06/12 10:27:23;;;;;;;;;;;25.60;99.90;;;;;;6162413;23;20312;-79
2021/06/12 10:29:50;;;;;;;;;;;25.60;99.90;;;;;;6161855;23;19920;-78
2021/06/12 10:32:17;;;;;;;;;;;25.60;99.90;;;;;;6163074;23;19920;-79
2021/06/12 10:34:45;;;;;;;;;;;25.70;99.90;;;;;;6162743;23;20022;-79
2021/06/12 10:37:12;;;;;;;;;;;25.70;99.90;;;;;;6163006;23;19920;-79
2021/06/12 10:39:40;;;;;;;;;;;25.80;99.90;;;;;;6164293;23;20345;-79
2021/06/12 10:42:20;;;;;;;;;;;25.90;99.90;;;;;;6164585;23;20003;-79
2021/06/12 10:44:53;;;;;;;;;;;25.90;99.90;;;;;;6163563;23;19920;-80
2021/06/12 10:47:36;;;;;;;;;;;25.80;96.70;;;;;;6162548;23;19919;-79
2021/06/12 10:50:21;;;;;;;;;;;25.90;99.50;;;;;;6163164;23;20002;-79
2021/06/12 10:52:48;;;;;;;;;;;26.20;99.20;;;;;;6163650;23;19927;-79
2021/06/12 10:55:41;;;;;;;;;;;26.30;96.80;;;;;;6191909;23;20303;-80
2021/06/12 10:58:27;;;;;;;;;;;26.30;95.00;;;;;;6145566;23;19963;-79
2021/06/12 11:01:13;;;;;;;;;;;26.10;95.80;;;;;;6165116;23;19974;-80
2021/06/12 11:03:41;;;;;;;;;;;25.90;96.70;;;;;;6165618;23;20303;-80
2021/06/12 11:06:43;;;;;;;;;;;25.70;94.50;;;;;;6188801;23;19927;-79
2021/06/12 11:09:18;;;;;;;;;;;25.60;94.50;;;;;;6188548;23;20002;-80
2021/06/12 11:11:54;;;;;;;;;;;25.40;95.30;;;;;;6164616;23;19962;-80
2021/06/12 11:14:21;;;;;;;;;;;25.40;95.40;;;;;;6165296;23;19924;-80
2021/06/12 11:17:07;;;;;;;;;;;25.40;95.10;;;;;;6164809;23;19920;-80
2021/06/12 11:19:34;;;;;;;;;;;25.40;95.90;;;;;;6164045;23;19930;-80
2021/06/12 11:22:24;;;;;;;;;;;25.60;96.10;;;;;;6188973;23;19951;-79
2021/06/12 11:24:52;;;;;;;;;;;25.80;95.10;;;;;;6188765;23;20341;-80
2021/06/12 11:27:22;;;;;;;;;;;25.80;94.80;;;;;;6164233;23;19947;-80
2021/06/12 11:30:07;;;;;;;;;;;25.90;93.70;;;;;;6214888;23;19920;-79
2021/06/12 11:32:34;;;;;;;;;;;25.90;94.30;;;;;;6163564;23;20002;-79
2021/06/12 11:35:06;;;;;;;;;;;26.10;93.20;;;;;;6188604;23;20091;-79
2021/06/12 11:37:49;;;;;;;;;;;26.30;92.80;;;;;;6164835;23;19951;-79
2021/06/12 11:40:21;;;;;;;;;;;26.40;92.70;;;;;;6163773;23;19959;-79
2021/06/12 13:04:35;;;;;;;;;;;27.00;87.30;;;;;;6214261;23;19911;-80
2021/06/12 13:27:44;;;;;;;;;;;26.90;84.10;;;;;;6208222;23;19976;-79
2021/06/12 13:36:08;;;;;;;;;;;27.00;82.90;;;;;;6264321;22;20306;-79
2021/06/12 13:42:49;;;;;;;;;;;27.20;83.00;;;;;;6267868;22;19919;-80
2021/06/12 13:45:19;;;;;;;;;;;27.20;82.10;;;;;;6214616;23;19946;-79
2021/06/12 13:47:46;;;;;;;;;;;27.10;84.30;;;;;;6214374;23;19942;-80
2021/06/12 13:50:13;;;;;;;;;;;27.10;81.00;;;;;;6239586;23;19920;-80
2021/06/12 13:52:41;;;;;;;;;;;27.10;85.60;;;;;;6241513;22;19920;-80
2021/06/12 13:55:12;;;;;;;;;;;27.00;82.00;;;;;;6240024;23;19919;-79
2021/06/12 13:57:41;;;;;;;;;;;26.90;81.90;;;;;;6239871;23;19904;-80
2021/06/12 14:00:10;;;;;;;;;;;26.70;82.80;;;;;;6211293;23;19931;-79
2021/06/12 14:02:41;;;;;;;;;;;26.60;84.60;;;;;;6212151;22;19920;-81
2021/06/12 14:05:10;;;;;;;;;;;26.40;83.90;;;;;;6232845;23;19924;-80
2021/06/12 14:07:41;;;;;;;;;;;26.20;86.30;;;;;;6209944;23;19919;-80
2021/06/12 14:18:20;;;;;;;;;;;25.90;90.10;;;;;;6145934;23;19916;-81
2021/06/12 14:21:25;;;;;;;;;;;25.80;89.60;;;;;;6133929;23;19923;-80
2021/06/12 14:23:54;;;;;;;;;;;25.80;89.00;;;;;;6105566;23;19921;-80
2021/06/12 14:26:27;;;;;;;;;;;25.70;89.60;;;;;;6129117;23;19911;-80
2021/06/12 14:29:00;;;;;;;;;;;25.90;90.30;;;;;;6151684;23;19951;-80
2021/06/12 14:31:30;;;;;;;;;;;26.10;90.40;;;;;;6095367;23;20448;-80
2021/06/12 14:34:06;;;;;;;;;;;26.30;89.60;;;;;;6094671;23;19945;-80
2021/06/12 14:36:41;;;;;;;;;;;26.40;90.20;;;;;;6119652;23;19936;-80
2021/06/12 14:39:34;;;;;;;;;;;26.60;90.90;;;;;;6124885;23;19924;-80
2021/06/12 14:42:04;;;;;;;;;;;26.70;88.60;;;;;;6120739;23;19921;-79
2021/06/12 14:44:33;;;;;;;;;;;26.90;88.60;;;;;;6158291;23;19958;-79
2021/06/12 14:47:00;;;;;;;;;;;27.10;87.80;;;;;;6213132;23;19919;-79
2021/06/12 14:49:32;;;;;;;;;;;27.10;89.10;;;;;;6211300;23;20319;-79
2021/06/12 14:52:04;;;;;;;;;;;27.10;90.40;;;;;;6213591;23;19919;-79
2021/06/12 14:54:32;;;;;;;;;;;27.00;91.10;;;;;;6215162;23;19923;-79
2021/06/12 15:00:30;;;;;;;;;;;26.90;92.10;;;;;;6238614;23;19922;-80
2021/06/12 15:03:00;;;;;;;;;;;26.90;91.30;;;;;;6247742;22;19924;-80
2021/06/12 15:05:29;;;;;;;;;;;26.90;91.90;;;;;;6266717;22;19942;-80
2021/06/12 15:07:59;;;;;;;;;;;26.90;91.40;;;;;;6214959;23;19926;-81
2021/06/12 15:10:33;;;;;;;;;;;27.10;91.40;;;;;;6230255;23;19923;-80
2021/06/12 15:13:00;;;;;;;;;;;27.10;90.50;;;;;;6197725;23;20353;-81
2021/06/12 15:15:32;;;;;;;;;;;27.10;88.10;;;;;;6185769;23;20301;-79
2021/06/12 15:17:58;;;;;;;;;;;27.00;88.50;;;;;;6186611;23;20299;-79
2021/06/12 15:20:31;;;;;;;;;;;26.90;90.50;;;;;;6187350;23;20337;-79
2021/06/12 15:22:59;;;;;;;;;;;27.10;89.90;;;;;;6163174;23;19920;-79
2021/06/12 15:25:26;;;;;;;;;;;27.40;87.50;;;;;;6188037;23;20320;-79
2021/06/12 15:27:53;;;;;;;;;;;27.60;87.90;;;;;;6188663;23;19920;-79
2021/06/12 15:30:19;;;;;;;;;;;27.60;87.20;;;;;;6188613;23;19931;-79
2021/06/12 15:32:46;;;;;;;;;;;27.60;84.20;;;;;;6188587;23;20404;-80
2021/06/12 15:35:13;;;;;;;;;;;27.60;84.60;;;;;;6188762;23;19920;-79
2021/06/12 15:37:45;;;;;;;;;;;27.70;87.40;;;;;;6212554;23;20038;-80
2021/06/12 15:40:11;;;;;;;;;;;27.60;80.10;;;;;;6187533;23;19920;-79
2021/06/12 15:42:38;;;;;;;;;;;27.60;80.40;;;;;;6187289;23;19920;-79
2021/06/12 15:45:10;;;;;;;;;;;27.50;80.40;;;;;;6163349;23;19947;-79
2021/06/12 15:47:43;;;;;;;;;;;27.30;79.90;;;;;;6188941;23;20298;-79
2021/06/12 15:50:11;;;;;;;;;;;27.20;82.50;;;;;;6164004;23;19970;-79
2021/06/12 15:52:43;;;;;;;;;;;27.00;80.10;;;;;;6165249;23;19920;-79
2021/06/12 15:55:10;;;;;;;;;;;27.00;80.20;;;;;;6187113;23;19947;-79
2021/06/12 15:57:42;;;;;;;;;;;26.90;80.20;;;;;;6163135;23;19926;-79
2021/06/12 16:00:14;;;;;;;;;;;26.70;80.70;;;;;;6163099;23;20253;-79
2021/06/12 16:02:44;;;;;;;;;;;26.70;80.90;;;;;;6161956;23;20318;-79
2021/06/12 16:05:13;;;;;;;;;;;26.60;81.30;;;;;;6162234;23;19920;-79
2021/06/12 16:07:39;;;;;;;;;;;26.60;81.10;;;;;;6162207;23;20002;-79
2021/06/12 16:10:08;;;;;;;;;;;26.60;81.80;;;;;;6126749;23;763410;-79
2021/06/12 16:12:36;;;;;;;;;;;26.60;80.90;;;;;;6134340;23;19928;-79
2021/06/12 16:15:04;;;;;;;;;;;26.70;81.50;;;;;;6158666;23;19951;-77
2021/06/12 16:17:37;;;;;;;;;;;26.90;82.80;;;;;;6185720;23;20003;-80
2021/06/12 16:20:04;;;;;;;;;;;27.00;84.60;;;;;;6137400;23;19920;-80
2021/06/12 16:22:31;;;;;;;;;;;27.10;85.00;;;;;;6137547;23;19924;-80
2021/06/12 16:27:54;;;;;;;;;;;27.40;82.00;;;;;;6246610;22;20329;-79
2021/06/12 16:30:25;;;;;;;;;;;27.50;81.40;;;;;;6196712;23;19919;-80
2021/06/12 16:32:58;;;;;;;;;;;27.70;80.70;;;;;;6197947;22;20256;-79
2021/06/12 16:35:30;;;;;;;;;;;27.80;76.30;;;;;;6221413;23;19951;-79
2021/06/12 16:38:01;;;;;;;;;;;27.90;79.00;;;;;;6221354;23;20018;-78
2021/06/12 16:40:34;;;;;;;;;;;28.00;76.50;;;;;;6219694;23;19920;-79